Horacio Guerrero

Olheiro - Universitario
4 Dez 2028
Segunda-feira
Processo

Personalidade

Adaptabilidade (12) Ambição (11) Controvérsia (8) Lealdade (17) Pressão (5) Profissionalismo (8) Espírito Esportivo (11) Temperamento (10)

Perfil

Estilo de Treinamento Democrático
Licença Continental B
Determinação 4
Gestão de Pessoas 4
Motivação 6
Disciplina 9
Satisfação no Trabalho
100%
Fadiga
0%
Função Olheiro
Salário 61.5K p/s
Contrato 14.03.2030

Desempenho

Comportamento Bom
Eficácia do Treinamento
35%
Desenvolvimento do Jogador
30%
Prevenção de Lesões
25%
Implementação Tática
55%

Eventos Recentes

Participou de uma reunião de recrutamento agora
Recomendou um alvo de transferência agora
Recomendou um alvo de transferência agora
Recomendou um alvo de transferência agora
Avaliou um jogador agora
Avaliou um jogador agora
Avaliou um jogador agora
Avaliou um jogador 7d atrás

Monitorando agora

108
Jogador Clube Status Habilidade Confiança Observado Última observação Último voto
Juan Morales Juan Aurich Perdido 104 / 100 65% 1 03.12.2028 -
Matko Miljevic Racing Club Ativo 136 / 131 40% 3 01.12.2028 -
Felipe Peña Biafore Lanús Ativo 125 / 132 40% 4 01.12.2028 -
Joaquín García Vélez Ativo 129 / 129 40% 2 01.12.2028 -
Juan Bisanz Huracán Ativo 134 / 128 40% 3 30.11.2028 -
Jonathan David Atalanta Ativo 169 / 157 40% 1 30.11.2028 -
Lautaro Giaccone Argentinos Juniors Ativo 124 / 126 40% 4 29.11.2028 -
Gastón Togni Defensa y Justicia Ativo 136 / 127 40% 3 29.11.2028 -
Nuno Moreira Vasco da Gama Ativo 127 / 133 40% 2 29.11.2028 -
Christian Kouamé Atlético Mineiro Ativo 128 / 131 40% 2 25.11.2028 -
Juan Sforza Vasco da Gama Ativo 126 / 128 40% 2 25.11.2028 -
Brenner Vasco da Gama Ativo 127 / 130 40% 1 25.11.2028 -
Lautaro Guzmán MTK Budapest Ativo 125 / 128 40% 1 23.11.2028 -
Matías Galarza Talleres Ativo 136 / 130 40% 1 23.11.2028 -
Toni Fruk Talleres Ativo 141 / 137 40% 1 23.11.2028 -
Alex Luna Instituto Ativo 131 / 132 40% 4 18.11.2028 -
Franco Ibarra Rosario Central Ativo 139 / 131 40% 2 18.11.2028 -
Facundo Buonanotte Bristol City Ativo 140 / 154 40% 1 15.11.2028 -
Franco Zapiola Platense Ativo 121 / 126 40% 4 11.11.2028 -
Lyle Foster Rosenborg Ativo 129 / 133 40% 2 11.11.2028 -
Antonio Galeano Remo Stars Ativo 129 / 127 40% 2 10.11.2028 -
Alan Lescano Argentinos Juniors Ativo 144 / 132 40% 2 10.11.2028 -
Rodrigo Atencio São Paulo Ativo 124 / 128 40% 2 10.11.2028 -
Gustavo Neves Bragantino Ativo 130 / 131 40% 1 08.11.2028 -
Luis Rodriguez Valur Ativo 138 / 127 40% 2 04.11.2028 -
Jens Petter Hauge Bodo/Glimt Ativo 137 / 141 40% 2 04.11.2028 -
Gastón Martirena Racing Club Ativo 128 / 129 40% 4 01.11.2028 -
Jaminton Campaz Rosario Central Ativo 126 / 130 40% 3 01.11.2028 -
Gastón Benedetti Estudiantes Ativo 132 / 129 40% 2 01.11.2028 -
Bruno Leyes Godoy Cruz Ativo 121 / 128 40% 4 31.10.2028 -
Rick Talleres Ativo 125 / 125 40% 1 31.10.2028 -
Alan Velasco Fortaleza Ativo 138 / 132 40% 5 29.10.2028 -
Kayne Ramsay Atlético Mineiro Ativo 134 / 133 40% 1 29.10.2028 -
Joaquín Gho Argentinos Juniors Ativo 138 / 128 40% 2 27.10.2028 -
Marcos López Gimnasia La Plata Ativo 128 / 131 40% 2 26.10.2028 -
Franco Orozco Lanús Ativo 126 / 127 40% 1 26.10.2028 -
Santiago González Tigre Ativo 138 / 133 40% 3 21.10.2028 -
Luca Langoni Columbus Crew Ativo 138 / 132 40% 1 21.10.2028 -
Tomás Galván River Plate Ativo 127 / 128 40% 2 16.10.2028 -
Matías Zaracho Racing Club Ativo 120 / 127 40% 1 11.10.2028 -
Liel Abada Inter Miami CF Ativo 145 / 139 40% 1 11.10.2028 -
Riqui Puig CF Montreal Ativo 142 / 139 40% 2 10.10.2028 -
Santiago Solari Racing Club Ativo 133 / 125 40% 4 10.10.2028 -
Jonathan De Irastorza Independiente Ativo 130 / 131 40% 1 08.10.2028 -
Joaquín Pereyra Minnesota United FC Ativo 125 / 131 40% 1 03.10.2028 -
Telasco Segovia Inter Miami CF Ativo 136 / 136 40% 2 01.10.2028 -
Pavel Bucha Portland Timbers Ativo 127 / 131 40% 1 01.10.2028 -
Cheikh Sabaly Vancouver Whitecaps Ativo 135 / 125 40% 1 01.10.2028 -
Pedro de la Vega Columbus Crew Ativo 140 / 138 40% 2 28.09.2028 -
Talles Magno New York City Ativo 144 / 134 40% 2 28.09.2028 -
Leandro Andrade Chicago Fire Ativo 137 / 133 40% 2 27.09.2028 -
Hannes Wolf New York City Ativo 137 / 129 40% 2 27.09.2028 -
Facundo Mura Inter Miami CF Ativo 127 / 125 40% 1 27.09.2028 -
Anders Dreyer San Diego Football Club Ativo 130 / 129 40% 1 23.09.2028 -
Allan Saint-Maximin Charlotte Football Club Ativo 148 / 140 40% 2 12.09.2028 -
David Da Costa Portland Timbers Ativo 134 / 132 40% 1 12.09.2028 -
Rodrigo Cabral Huracán Ativo 136 / 124 40% 2 11.09.2028 -
Tiago Palacios Estudiantes Ativo 134 / 132 40% 1 05.09.2028 -
Eryc Castillo Alianza Lima Ativo 108 / 114 65% 1 10.07.2028 Aprovar
Babis Kostoulas Oxford United Ativo 148 / 146 40% 2 22.06.2028 -
Jack McGlynn Stoke City Ativo 136 / 136 40% 1 22.06.2028 -
Luca Williams-Barnett Walsall Ativo 124 / 133 40% 1 22.06.2028 -
Kwadwo Baah Watford Ativo 148 / 133 40% 1 20.06.2028 -
Vitaly Janelt Derby County Ativo 157 / 151 40% 1 20.06.2028 -
Rodrigo Muniz Fulham Ativo 153 / 144 40% 2 28.05.2028 -
Pablo Felipe West Ham United Ativo 138 / 146 40% 1 28.05.2028 -
Joe Gelhardt Hull City Ativo 133 / 135 40% 1 27.05.2028 -
Sam Greenwood Bristol City Ativo 127 / 125 40% 1 27.05.2028 -
Yousef Salech Cardiff City Ativo 142 / 131 40% 3 25.05.2028 -
Ilyas Ansah Hull City Ativo 136 / 141 40% 2 25.05.2028 -
Dwight McNeil Crystal Palace Ativo 142 / 147 40% 2 25.05.2028 -
Mattia Felici Cagliari Ativo 145 / 130 40% 1 20.05.2028 -
Nicolò Zaniolo Udinese Ativo 159 / 148 40% 1 13.05.2028 -
Musa Barrow ES Setif Ativo 133 / 138 40% 1 13.05.2028 -
Taiwo Awoniyi Middlesbrough Ativo 151 / 142 40% 2 11.05.2028 -
Jayden Danns Bradford City Ativo 134 / 144 40% 1 11.05.2028 -
Tyrese Campbell Sheffield United Ativo 136 / 135 40% 2 01.05.2028 -
Andrea Adorante Venezia Ativo 126 / 128 40% 1 24.04.2028 -
Taty Castellanos West Ham United Ativo 165 / 147 40% 1 24.04.2028 -
Oli McBurnie Hull City Ativo 137 / 137 40% 2 22.04.2028 -
Jarrod Bowen West Ham United Ativo 168 / 157 40% 1 22.04.2028 -
Jørgen Strand Larsen Brighton Ativo 148 / 147 40% 3 18.04.2028 -
Zito Luvumbo Cagliari Ativo 123 / 131 40% 1 17.04.2028 -
Aune Heggebø West Bromwich Albion Ativo 144 / 136 40% 1 14.04.2028 -
Callum O'Hare Sheffield United Ativo 151 / 139 40% 1 11.04.2028 -
Jay Stansfield Birmingham Ativo 119 / 136 40% 1 03.04.2028 -
Steven Bergwijn Al-Ittihad Ativo 149 / 149 40% 1 23.03.2028 -
Sindre Walle Egeli Udinese Ativo 151 / 141 40% 3 21.03.2028 -
Patson Daka Leicester City Ativo 143 / 134 40% 1 21.03.2028 -
Eli Junior Kroupi Bournemouth Ativo 144 / 152 40% 1 19.03.2028 -
Alan Cantero Juan Aurich Ativo 129 / 115 62% 1 01.12.2027 Aprovar
Gaspar Gentile Alianza Lima Ativo 107 / 117 62% 1 28.06.2027 Aprovar
Lorenzo De Leo Renate Ativo 112 / 103 40% 2 23.05.2027 -
Nahuel Olmedo Crawley Town Ativo 76 / 87 40% 1 17.05.2027 -
Luka Andrade Montevideo City Torque Ativo 97 / 106 40% 1 13.05.2027 -
Ben Ahmed Kohili Paradou Ativo 114 / 101 40% 2 11.05.2027 -
Darlvin Yeboah Bechem United Ativo 85 / 83 40% 1 07.05.2027 -
Alen Vukaj Alcione Milano Ativo 81 / 89 40% 2 21.04.2027 -
Naledi Hlongwane Wa All Stars Ativo 97 / 93 40% 1 21.04.2027 -
Eduardo Lozano Botafogo Ativo 148 / 153 40% 2 03.04.2027 -
Jonás Luna Wanderers Ativo 108 / 120 40% 1 03.04.2027 -
Borna Knezović Casarano Ativo 86 / 101 40% 2 29.03.2027 -
Rocco Vata Watford Ativo 107 / 126 40% 1 29.03.2027 -
Fletcher Holman Swindon Town Ativo 76 / 91 40% 2 26.03.2027 -
Rafael Moreno Atletico Venezuela Ativo 97 / 111 40% 2 20.03.2027 -
Ousseynou Seck Randers Ativo 94 / 121 40% 1 15.03.2027 -
Joseph George Aigle Royal de Moungo Ativo 73 / 82 40% 1 08.03.2027 -
Kirill Cheburakov Rostov Ativo 68 / 75 40% 1 02.03.2027 -